sensor_id;sensor_type;location;lat;lon;timestamp;pressure;altitude;pressure_sealevel;temperature;humidity
20119;BME280;10220;42.716;23.306;2022-09-19T00:02:17;95357.00;;;12.38;100.00
20119;BME280;10220;42.716;23.306;2022-09-19T00:04:42;95363.38;;;12.42;100.00
20119;BME280;10220;42.716;23.306;2022-09-19T00:07:08;95356.53;;;13.09;100.00
20119;BME280;10220;42.716;23.306;2022-09-19T00:09:34;95355.59;;;12.05;100.00
20119;BME280;10220;42.716;23.306;2022-09-19T00:12:00;95308.56;;;11.82;100.00
20119;BME280;10220;42.716;23.306;2022-09-19T00:14:29;95337.91;;;12.57;100.00
20119;BME280;10220;42.716;23.306;2022-09-19T00:17:06;95284.91;;;12.34;100.00
20119;BME280;10220;42.716;23.306;2022-09-19T00:19:32;95340.59;;;12.07;100.00
20119;BME280;10220;42.716;23.306;2022-09-19T00:21:59;95348.19;;;12.09;100.00
20119;BME280;10220;42.716;23.306;2022-09-19T00:24:28;95331.31;;;10.59;100.00
20119;BME280;10220;42.716;23.306;2022-09-19T00:27:17;95343.53;;;11.80;100.00
20119;BME280;10220;42.716;23.306;2022-09-19T00:29:43;95319.56;;;12.77;100.00
20119;BME280;10220;42.716;23.306;2022-09-19T00:32:10;95341.06;;;13.14;100.00
20119;BME280;10220;42.716;23.306;2022-09-19T00:34:38;95300.72;;;12.32;100.00
20119;BME280;10220;42.716;23.306;2022-09-19T00:37:05;95342.06;;;12.65;100.00
20119;BME280;10220;42.716;23.306;2022-09-19T00:39:31;95348.38;;;12.75;100.00
20119;BME280;10220;42.716;23.306;2022-09-19T00:41:57;95313.41;;;12.10;100.00
20119;BME280;10220;42.716;23.306;2022-09-19T00:47:07;95344.31;;;11.87;100.00
20119;BME280;10220;42.716;23.306;2022-09-19T00:49:41;95347.09;;;10.71;100.00
20119;BME280;10220;42.716;23.306;2022-09-19T00:52:13;95297.97;;;12.21;100.00
20119;BME280;10220;42.716;23.306;2022-09-19T00:54:42;95357.69;;;12.89;100.00
20119;BME280;10220;42.716;23.306;2022-09-19T00:57:13;95339.28;;;13.33;100.00
20119;BME280;10220;42.716;23.306;2022-09-19T00:59:42;95296.84;;;13.32;100.00
20119;BME280;10220;42.716;23.306;2022-09-19T01:02:09;95301.06;;;13.51;100.00
20119;BME280;10220;42.716;23.306;2022-09-19T01:04:36;95343.97;;;13.24;100.00
20119;BME280;10220;42.716;23.306;2022-09-19T01:07:23;95330.72;;;11.15;100.00
20119;BME280;10220;42.716;23.306;2022-09-19T01:15:33;95330.94;;;11.08;100.00
20119;BME280;10220;42.716;23.306;2022-09-19T01:18:04;95339.44;;;11.97;100.00
20119;BME280;10220;42.716;23.306;2022-09-19T01:28:46;95323.81;;;12.10;100.00
20119;BME280;10220;42.716;23.306;2022-09-19T01:31:19;95325.31;;;12.61;100.00
20119;BME280;10220;42.716;23.306;2022-09-19T01:34:09;95319.88;;;13.11;100.00
20119;BME280;10220;42.716;23.306;2022-09-19T01:36:43;95338.59;;;12.71;100.00
20119;BME280;10220;42.716;23.306;2022-09-19T01:39:15;95321.97;;;13.02;100.00
20119;BME280;10220;42.716;23.306;2022-09-19T01:41:49;95314.00;;;12.42;100.00
20119;BME280;10220;42.716;23.306;2022-09-19T01:44:17;95313.06;;;12.06;100.00
20119;BME280;10220;42.716;23.306;2022-09-19T01:46:51;95328.38;;;10.62;100.00
20119;BME280;10220;42.716;23.306;2022-09-19T01:54:59;95306.50;;;9.33;100.00
20119;BME280;10220;42.716;23.306;2022-09-19T02:03:52;95338.13;;;10.93;100.00
20119;BME280;10220;42.716;23.306;2022-09-19T02:06:43;95312.19;;;12.19;100.00
20119;BME280;10220;42.716;23.306;2022-09-19T02:12:18;95320.25;;;11.41;100.00
20119;BME280;10220;42.716;23.306;2022-09-19T02:14:49;95296.00;;;11.04;100.00
20119;BME280;10220;42.716;23.306;2022-09-19T02:17:23;95322.94;;;9.26;100.00
20119;BME280;10220;42.716;23.306;2022-09-19T02:19:57;95300.22;;;10.08;100.00
20119;BME280;10220;42.716;23.306;2022-09-19T02:22:30;95317.50;;;11.43;100.00
20119;BME280;10220;42.716;23.306;2022-09-19T02:25:00;95294.47;;;10.96;100.00
20119;BME280;10220;42.716;23.306;2022-09-19T02:27:31;95307.41;;;10.96;100.00
20119;BME280;10220;42.716;23.306;2022-09-19T02:30:02;95303.97;;;12.22;100.00
20119;BME280;10220;42.716;23.306;2022-09-19T02:32:30;95262.38;;;11.60;100.00
20119;BME280;10220;42.716;23.306;2022-09-19T02:34:57;95300.09;;;11.63;100.00
20119;BME280;10220;42.716;23.306;2022-09-19T02:37:43;95291.56;;;11.86;100.00
20119;BME280;10220;42.716;23.306;2022-09-19T02:40:21;95297.50;;;12.30;100.00
20119;BME280;10220;42.716;23.306;2022-09-19T02:43:04;95282.47;;;12.39;100.00
20119;BME280;10220;42.716;23.306;2022-09-19T02:45:39;95307.53;;;12.82;100.00
20119;BME280;10220;42.716;23.306;2022-09-19T02:48:24;95307.81;;;12.98;100.00
20119;BME280;10220;42.716;23.306;2022-09-19T02:51:12;95298.91;;;12.88;100.00
20119;BME280;10220;42.716;23.306;2022-09-19T02:53:44;95270.75;;;10.60;100.00
20119;BME280;10220;42.716;23.306;2022-09-19T02:56:13;95302.00;;;11.80;100.00
20119;BME280;10220;42.716;23.306;2022-09-19T02:58:48;95307.69;;;12.63;100.00
20119;BME280;10220;42.716;23.306;2022-09-19T03:01:20;95295.88;;;12.91;100.00
20119;BME280;10220;42.716;23.306;2022-09-19T03:03:51;95307.72;;;11.95;100.00
20119;BME280;10220;42.716;23.306;2022-09-19T03:06:41;95303.72;;;12.29;100.00
20119;BME280;10220;42.716;23.306;2022-09-19T03:09:08;95273.97;;;11.51;100.00
20119;BME280;10220;42.716;23.306;2022-09-19T03:11:40;95297.84;;;12.10;100.00
20119;BME280;10220;42.716;23.306;2022-09-19T03:14:07;95297.75;;;12.23;100.00
20119;BME280;10220;42.716;23.306;2022-09-19T03:16:36;95297.66;;;12.05;100.00
20119;BME280;10220;42.716;23.306;2022-09-19T03:19:07;95304.66;;;12.04;100.00
20119;BME280;10220;42.716;23.306;2022-09-19T03:21:34;95258.44;;;11.38;100.00
20119;BME280;10220;42.716;23.306;2022-09-19T03:24:01;95276.78;;;11.37;100.00
20119;BME280;10220;42.716;23.306;2022-09-19T03:26:30;95314.38;;;11.84;100.00
20119;BME280;10220;42.716;23.306;2022-09-19T03:28:58;95269.72;;;11.63;100.00
20119;BME280;10220;42.716;23.306;2022-09-19T03:31:24;95257.31;;;9.73;100.00
20119;BME280;10220;42.716;23.306;2022-09-19T03:33:50;95312.88;;;9.03;100.00
20119;BME280;10220;42.716;23.306;2022-09-19T03:36:17;95310.50;;;8.75;100.00
20119;BME280;10220;42.716;23.306;2022-09-19T03:38:43;95297.50;;;9.23;100.00
20119;BME280;10220;42.716;23.306;2022-09-19T03:41:11;95291.47;;;10.02;100.00
20119;BME280;10220;42.716;23.306;2022-09-19T03:43:36;95285.66;;;8.74;100.00
20119;BME280;10220;42.716;23.306;2022-09-19T03:46:02;95296.03;;;10.07;100.00
20119;BME280;10220;42.716;23.306;2022-09-19T03:48:27;95254.63;;;10.84;100.00
20119;BME280;10220;42.716;23.306;2022-09-19T03:50:53;95269.84;;;11.81;100.00
20119;BME280;10220;42.716;23.306;2022-09-19T03:53:19;95285.69;;;11.67;100.00
20119;BME280;10220;42.716;23.306;2022-09-19T03:55:46;95255.88;;;11.82;100.00
20119;BME280;10220;42.716;23.306;2022-09-19T03:58:11;95277.31;;;12.57;100.00
20119;BME280;10220;42.716;23.306;2022-09-19T04:00:38;95270.81;;;11.86;100.00
20119;BME280;10220;42.716;23.306;2022-09-19T04:03:03;95262.91;;;11.12;100.00
20119;BME280;10220;42.716;23.306;2022-09-19T04:05:29;95276.75;;;10.42;100.00
20119;BME280;10220;42.716;23.306;2022-09-19T04:07:54;95258.56;;;9.31;100.00
20119;BME280;10220;42.716;23.306;2022-09-19T04:10:20;95273.56;;;9.61;100.00
20119;BME280;10220;42.716;23.306;2022-09-19T04:12:46;95285.63;;;9.34;100.00
20119;BME280;10220;42.716;23.306;2022-09-19T04:15:14;95238.91;;;10.15;100.00
20119;BME280;10220;42.716;23.306;2022-09-19T04:17:40;95267.78;;;10.31;100.00
20119;BME280;10220;42.716;23.306;2022-09-19T04:20:05;95283.50;;;10.75;100.00
20119;BME280;10220;42.716;23.306;2022-09-19T04:22:31;95286.28;;;10.80;100.00
20119;BME280;10220;42.716;23.306;2022-09-19T04:24:56;95296.84;;;10.98;100.00
20119;BME280;10220;42.716;23.306;2022-09-19T04:27:22;95259.91;;;11.78;100.00
20119;BME280;10220;42.716;23.306;2022-09-19T04:29:48;95278.00;;;11.91;100.00
20119;BME280;10220;42.716;23.306;2022-09-19T04:32:13;95283.59;;;11.81;100.00
20119;BME280;10220;42.716;23.306;2022-09-19T04:34:41;95276.38;;;11.96;100.00
20119;BME280;10220;42.716;23.306;2022-09-19T04:37:08;95268.84;;;11.25;100.00
20119;BME280;10220;42.716;23.306;2022-09-19T04:39:34;95286.09;;;10.62;100.00
20119;BME280;10220;42.716;23.306;2022-09-19T04:42:00;95282.50;;;10.95;100.00
20119;BME280;10220;42.716;23.306;2022-09-19T04:44:27;95277.75;;;10.73;100.00
20119;BME280;10220;42.716;23.306;2022-09-19T04:46:55;95241.88;;;9.99;100.00
20119;BME280;10220;42.716;23.306;2022-09-19T04:49:20;95273.84;;;11.14;100.00
20119;BME280;10220;42.716;23.306;2022-09-19T04:51:46;95257.28;;;11.78;100.00
20119;BME280;10220;42.716;23.306;2022-09-19T04:54:12;95275.41;;;11.91;100.00
20119;BME280;10220;42.716;23.306;2022-09-19T04:56:40;95233.78;;;11.67;100.00
20119;BME280;10220;42.716;23.306;2022-09-19T04:59:09;95272.50;;;12.05;100.00
20119;BME280;10220;42.716;23.306;2022-09-19T05:01:35;95271.13;;;12.03;100.00
20119;BME280;10220;42.716;23.306;2022-09-19T05:04:02;95259.34;;;12.00;100.00
20119;BME280;10220;42.716;23.306;2022-09-19T05:06:30;95225.50;;;11.45;100.00
20119;BME280;10220;42.716;23.306;2022-09-19T05:08:55;95274.19;;;11.93;100.00
20119;BME280;10220;42.716;23.306;2022-09-19T05:11:23;95282.50;;;12.02;100.00
20119;BME280;10220;42.716;23.306;2022-09-19T05:13:49;95295.13;;;11.55;100.00
20119;BME280;10220;42.716;23.306;2022-09-19T05:16:16;95238.03;;;10.92;100.00
20119;BME280;10220;42.716;23.306;2022-09-19T05:18:44;95267.97;;;10.10;100.00
20119;BME280;10220;42.716;23.306;2022-09-19T05:21:13;95295.25;;;10.32;100.00
20119;BME280;10220;42.716;23.306;2022-09-19T05:23:40;95313.06;;;9.89;100.00
20119;BME280;10220;42.716;23.306;2022-09-19T05:26:11;95262.69;;;8.85;100.00
20119;BME280;10220;42.716;23.306;2022-09-19T05:28:40;95305.38;;;9.08;100.00
20119;BME280;10220;42.716;23.306;2022-09-19T05:31:07;95291.72;;;9.21;100.00
20119;BME280;10220;42.716;23.306;2022-09-19T05:33:33;95296.94;;;9.27;100.00
20119;BME280;10220;42.716;23.306;2022-09-19T05:36:00;95306.75;;;8.77;100.00
20119;BME280;10220;42.716;23.306;2022-09-19T05:38:27;95306.59;;;8.30;100.00
20119;BME280;10220;42.716;23.306;2022-09-19T05:40:53;95302.69;;;8.41;100.00
20119;BME280;10220;42.716;23.306;2022-09-19T05:43:19;95309.72;;;8.47;100.00
20119;BME280;10220;42.716;23.306;2022-09-19T05:45:44;95275.88;;;7.94;100.00
20119;BME280;10220;42.716;23.306;2022-09-19T05:48:10;95305.75;;;8.23;100.00
20119;BME280;10220;42.716;23.306;2022-09-19T05:50:36;95303.88;;;8.18;100.00
20119;BME280;10220;42.716;23.306;2022-09-19T05:53:01;95302.84;;;8.33;100.00
20119;BME280;10220;42.716;23.306;2022-09-19T05:55:45;95299.69;;;8.37;100.00
20119;BME280;10220;42.716;23.306;2022-09-19T05:58:11;95289.56;;;8.36;100.00
20119;BME280;10220;42.716;23.306;2022-09-19T06:00:38;95293.09;;;8.83;100.00
20119;BME280;10220;42.716;23.306;2022-09-19T06:03:05;95295.03;;;9.08;100.00
20119;BME280;10220;42.716;23.306;2022-09-19T06:05:38;95278.25;;;8.64;100.00
20119;BME280;10220;42.716;23.306;2022-09-19T06:08:05;95274.31;;;8.68;100.00
20119;BME280;10220;42.716;23.306;2022-09-19T06:10:34;95263.03;;;9.09;100.00
20119;BME280;10220;42.716;23.306;2022-09-19T06:13:00;95278.78;;;9.14;100.00
20119;BME280;10220;42.716;23.306;2022-09-19T06:15:26;95285.53;;;9.68;100.00
20119;BME280;10220;42.716;23.306;2022-09-19T06:17:58;95298.06;;;10.50;100.00
20119;BME280;10220;42.716;23.306;2022-09-19T06:20:23;95277.91;;;10.97;100.00
20119;BME280;10220;42.716;23.306;2022-09-19T06:22:55;95259.28;;;11.32;100.00
20119;BME280;10220;42.716;23.306;2022-09-19T06:25:21;95257.97;;;10.98;100.00
20119;BME280;10220;42.716;23.306;2022-09-19T06:27:56;95309.50;;;11.51;100.00
20119;BME280;10220;42.716;23.306;2022-09-19T06:30:23;95301.09;;;11.55;100.00
20119;BME280;10220;42.716;23.306;2022-09-19T06:32:49;95299.00;;;11.20;100.00
20119;BME280;10220;42.716;23.306;2022-09-19T06:35:16;95249.94;;;11.18;100.00
20119;BME280;10220;42.716;23.306;2022-09-19T06:37:41;95313.00;;;11.75;100.00
20119;BME280;10220;42.716;23.306;2022-09-19T06:40:21;95269.38;;;11.90;100.00
20119;BME280;10220;42.716;23.306;2022-09-19T06:42:47;95247.91;;;11.77;100.00
20119;BME280;10220;42.716;23.306;2022-09-19T06:45:14;95292.16;;;11.32;100.00
20119;BME280;10220;42.716;23.306;2022-09-19T06:47:39;95280.00;;;11.32;100.00
20119;BME280;10220;42.716;23.306;2022-09-19T06:50:05;95267.44;;;11.29;100.00
20119;BME280;10220;42.716;23.306;2022-09-19T06:52:30;95261.13;;;11.00;100.00
20119;BME280;10220;42.716;23.306;2022-09-19T06:54:56;95277.53;;;10.74;100.00
20119;BME280;10220;42.716;23.306;2022-09-19T06:57:23;95272.94;;;10.76;100.00
20119;BME280;10220;42.716;23.306;2022-09-19T06:59:49;95268.91;;;10.93;100.00
20119;BME280;10220;42.716;23.306;2022-09-19T07:02:14;95291.78;;;11.35;100.00
20119;BME280;10220;42.716;23.306;2022-09-19T07:04:40;95239.09;;;11.34;100.00
20119;BME280;10220;42.716;23.306;2022-09-19T07:07:06;95260.00;;;11.46;100.00
20119;BME280;10220;42.716;23.306;2022-09-19T07:09:31;95236.00;;;11.63;100.00
20119;BME280;10220;42.716;23.306;2022-09-19T07:11:57;95280.44;;;11.79;100.00
20119;BME280;10220;42.716;23.306;2022-09-19T07:14:26;95223.13;;;11.37;100.00
20119;BME280;10220;42.716;23.306;2022-09-19T07:16:51;95223.47;;;11.54;100.00
20119;BME280;10220;42.716;23.306;2022-09-19T07:19:17;95237.09;;;11.80;100.00
20119;BME280;10220;42.716;23.306;2022-09-19T07:21:42;95238.97;;;12.28;100.00
20119;BME280;10220;42.716;23.306;2022-09-19T07:24:08;95277.53;;;12.80;100.00
20119;BME280;10220;42.716;23.306;2022-09-19T07:26:34;95220.88;;;12.46;100.00
20119;BME280;10220;42.716;23.306;2022-09-19T07:29:00;95266.13;;;13.23;100.00
20119;BME280;10220;42.716;23.306;2022-09-19T07:31:28;95249.53;;;13.24;100.00
20119;BME280;10220;42.716;23.306;2022-09-19T07:33:54;95270.13;;;13.43;100.00
20119;BME280;10220;42.716;23.306;2022-09-19T07:36:20;95258.78;;;13.38;100.00
20119;BME280;10220;42.716;23.306;2022-09-19T07:38:49;95221.13;;;13.69;100.00
20119;BME280;10220;42.716;23.306;2022-09-19T07:41:16;95266.38;;;13.86;98.33
20119;BME280;10220;42.716;23.306;2022-09-19T07:43:42;95255.66;;;13.65;96.68
20119;BME280;10220;42.716;23.306;2022-09-19T07:46:08;95211.16;;;13.66;96.76
20119;BME280;10220;42.716;23.306;2022-09-19T07:48:33;95223.63;;;13.94;100.00
20119;BME280;10220;42.716;23.306;2022-09-19T07:50:59;95179.97;;;13.48;99.93
20119;BME280;10220;42.716;23.306;2022-09-19T07:53:27;95245.25;;;13.65;97.86
20119;BME280;10220;42.716;23.306;2022-09-19T07:55:55;95244.41;;;13.82;96.80
20119;BME280;10220;42.716;23.306;2022-09-19T07:58:24;95220.28;;;13.87;100.00
20119;BME280;10220;42.716;23.306;2022-09-19T08:00:52;95244.72;;;14.44;100.00
20119;BME280;10220;42.716;23.306;2022-09-19T08:03:19;95198.47;;;14.97;100.00
20119;BME280;10220;42.716;23.306;2022-09-19T08:05:48;95228.41;;;15.17;93.56
20119;BME280;10220;42.716;23.306;2022-09-19T08:08:15;95243.03;;;15.41;91.47
20119;BME280;10220;42.716;23.306;2022-09-19T08:10:42;95243.16;;;15.74;80.45
20119;BME280;10220;42.716;23.306;2022-09-19T08:13:09;95112.88;;;14.82;84.63
20119;BME280;10220;42.716;23.306;2022-09-19T08:15:36;95218.13;;;15.22;92.50
20119;BME280;10220;42.716;23.306;2022-09-19T08:18:11;95219.44;;;15.75;86.86
20119;BME280;10220;42.716;23.306;2022-09-19T08:20:39;95200.06;;;15.87;89.02
20119;BME280;10220;42.716;23.306;2022-09-19T08:23:08;95217.47;;;16.38;81.06
20119;BME280;10220;42.716;23.306;2022-09-19T08:25:35;95215.28;;;16.18;76.51
20119;BME280;10220;42.716;23.306;2022-09-19T08:28:03;95168.91;;;15.70;80.73
20119;BME280;10220;42.716;23.306;2022-09-19T08:30:30;95214.78;;;15.77;88.95
20119;BME280;10220;42.716;23.306;2022-09-19T08:32:55;95164.28;;;15.44;87.09
20119;BME280;10220;42.716;23.306;2022-09-19T08:35:22;95222.81;;;16.03;81.81
20119;BME280;10220;42.716;23.306;2022-09-19T08:37:53;95223.72;;;15.81;74.66
20119;BME280;10220;42.716;23.306;2022-09-19T08:40:24;95209.59;;;15.66;80.13
20119;BME280;10220;42.716;23.306;2022-09-19T08:46:00;95175.72;;;15.71;80.46
20119;BME280;10220;42.716;23.306;2022-09-19T08:51:26;95204.28;;;15.88;78.02
20119;BME280;10220;42.716;23.306;2022-09-19T08:54:03;95218.38;;;16.15;79.88
20119;BME280;10220;42.716;23.306;2022-09-19T08:56:31;95208.91;;;16.26;78.13
20119;BME280;10220;42.716;23.306;2022-09-19T08:59:00;95193.38;;;15.64;82.54
20119;BME280;10220;42.716;23.306;2022-09-19T09:01:29;95184.56;;;16.25;81.22
20119;BME280;10220;42.716;23.306;2022-09-19T09:04:26;95197.78;;;16.84;73.72
20119;BME280;10220;42.716;23.306;2022-09-19T09:15:15;95175.34;;;17.95;65.03
20119;BME280;10220;42.716;23.306;2022-09-19T09:20:49;95126.91;;;19.11;58.62
20119;BME280;10220;42.716;23.306;2022-09-19T09:23:27;95165.63;;;18.89;56.36
20119;BME280;10220;42.716;23.306;2022-09-19T09:26:01;95137.88;;;19.03;60.56
20119;BME280;10220;42.716;23.306;2022-09-19T09:29:01;95097.56;;;18.78;59.86
20119;BME280;10220;42.716;23.306;2022-09-19T09:31:31;95116.94;;;18.30;59.23
20119;BME280;10220;42.716;23.306;2022-09-19T09:34:02;95115.81;;;17.00;66.36
20119;BME280;10220;42.716;23.306;2022-09-19T09:36:38;95092.00;;;16.80;67.41
20119;BME280;10220;42.716;23.306;2022-09-19T09:39:22;95137.81;;;17.42;66.90
20119;BME280;10220;42.716;23.306;2022-09-19T09:41:52;95130.16;;;17.62;61.39
20119;BME280;10220;42.716;23.306;2022-09-19T09:47:45;95117.69;;;18.62;60.55
20119;BME280;10220;42.716;23.306;2022-09-19T09:50:41;95110.91;;;18.71;60.08
20119;BME280;10220;42.716;23.306;2022-09-19T09:56:02;95076.53;;;18.00;60.43
20119;BME280;10220;42.716;23.306;2022-09-19T09:58:51;95078.72;;;18.85;58.39
20119;BME280;10220;42.716;23.306;2022-09-19T10:01:24;95109.97;;;18.46;58.02
20119;BME280;10220;42.716;23.306;2022-09-19T10:06:47;95082.66;;;18.88;61.54
20119;BME280;10220;42.716;23.306;2022-09-19T10:09:24;95087.09;;;18.87;57.94
20119;BME280;10220;42.716;23.306;2022-09-19T10:14:44;95087.16;;;19.63;53.93
20119;BME280;10220;42.716;23.306;2022-09-19T10:17:13;95074.69;;;19.19;50.71
20119;BME280;10220;42.716;23.306;2022-09-19T10:19:43;95086.03;;;19.40;55.44
20119;BME280;10220;42.716;23.306;2022-09-19T10:22:12;95074.25;;;19.67;52.54
20119;BME280;10220;42.716;23.306;2022-09-19T10:27:23;95074.53;;;20.79;52.97
20119;BME280;10220;42.716;23.306;2022-09-19T10:30:16;95072.47;;;20.32;50.07
20119;BME280;10220;42.716;23.306;2022-09-19T10:32:44;95080.91;;;20.09;52.07
20119;BME280;10220;42.716;23.306;2022-09-19T10:35:20;95072.50;;;19.97;49.24
20119;BME280;10220;42.716;23.306;2022-09-19T10:38:24;95054.53;;;19.64;49.04
20119;BME280;10220;42.716;23.306;2022-09-19T10:40:57;95058.94;;;19.34;50.88
20119;BME280;10220;42.716;23.306;2022-09-19T10:43:28;95061.16;;;19.97;50.23
20119;BME280;10220;42.716;23.306;2022-09-19T10:46:04;95039.84;;;19.83;47.38
20119;BME280;10220;42.716;23.306;2022-09-19T10:48:38;95046.91;;;19.48;47.35
20119;BME280;10220;42.716;23.306;2022-09-19T10:51:06;95020.03;;;19.26;49.60
20119;BME280;10220;42.716;23.306;2022-09-19T10:53:34;95011.19;;;19.92;49.76
20119;BME280;10220;42.716;23.306;2022-09-19T10:56:04;95020.09;;;20.40;49.36
20119;BME280;10220;42.716;23.306;2022-09-19T10:58:36;95032.94;;;20.57;46.56
20119;BME280;10220;42.716;23.306;2022-09-19T11:01:08;95030.88;;;20.39;45.05
20119;BME280;10220;42.716;23.306;2022-09-19T11:04:00;95026.44;;;19.90;45.43
20119;BME280;10220;42.716;23.306;2022-09-19T11:06:25;94991.97;;;20.06;46.24
20119;BME280;10220;42.716;23.306;2022-09-19T11:08:53;94994.31;;;20.22;44.38
20119;BME280;10220;42.716;23.306;2022-09-19T11:25:25;94989.53;;;20.39;40.37
20119;BME280;10220;42.716;23.306;2022-09-19T11:30:31;94973.03;;;19.94;40.84
20119;BME280;10220;42.716;23.306;2022-09-19T11:33:13;94980.13;;;20.23;41.18
20119;BME280;10220;42.716;23.306;2022-09-19T11:35:59;94974.81;;;20.33;40.88
20119;BME280;10220;42.716;23.306;2022-09-19T11:38:39;94972.09;;;20.63;39.71
20119;BME280;10220;42.716;23.306;2022-09-19T11:47:48;94955.25;;;20.74;39.88
20119;BME280;10220;42.716;23.306;2022-09-19T11:50:37;94960.69;;;20.92;39.50
20119;BME280;10220;42.716;23.306;2022-09-19T11:53:14;94952.78;;;20.87;38.58
20119;BME280;10220;42.716;23.306;2022-09-19T11:58:39;94948.38;;;20.78;39.91
20119;BME280;10220;42.716;23.306;2022-09-19T12:01:30;94946.09;;;21.05;38.12
20119;BME280;10220;42.716;23.306;2022-09-19T12:10:30;94931.97;;;21.29;37.52
20119;BME280;10220;42.716;23.306;2022-09-19T12:13:15;94920.31;;;20.97;36.64
20119;BME280;10220;42.716;23.306;2022-09-19T12:15:46;94934.75;;;21.09;36.32
20119;BME280;10220;42.716;23.306;2022-09-19T12:18:21;94923.81;;;21.25;35.38
20119;BME280;10220;42.716;23.306;2022-09-19T12:20:50;94924.06;;;20.91;36.79
20119;BME280;10220;42.716;23.306;2022-09-19T12:26:10;94902.97;;;20.96;37.25
20119;BME280;10220;42.716;23.306;2022-09-19T12:28:43;94926.25;;;21.22;36.46
20119;BME280;10220;42.716;23.306;2022-09-19T12:31:13;94914.00;;;20.98;35.69
20119;BME280;10220;42.716;23.306;2022-09-19T12:44:41;94904.53;;;20.97;36.17
20119;BME280;10220;42.716;23.306;2022-09-19T12:57:28;94902.81;;;21.21;36.68
20119;BME280;10220;42.716;23.306;2022-09-19T12:59:59;94857.00;;;21.12;34.57
20119;BME280;10220;42.716;23.306;2022-09-19T13:05:18;94889.63;;;21.49;36.90
20119;BME280;10220;42.716;23.306;2022-09-19T13:08:06;94895.13;;;21.19;36.63
20119;BME280;10220;42.716;23.306;2022-09-19T13:10:41;94902.91;;;21.39;35.89
20119;BME280;10220;42.716;23.306;2022-09-19T13:13:38;94892.28;;;21.54;35.84
20119;BME280;10220;42.716;23.306;2022-09-19T13:16:10;94882.63;;;21.34;35.95
20119;BME280;10220;42.716;23.306;2022-09-19T13:18:42;94861.94;;;21.23;38.27
20119;BME280;10220;42.716;23.306;2022-09-19T13:21:34;94864.75;;;21.31;37.38
20119;BME280;10220;42.716;23.306;2022-09-19T13:24:19;94882.88;;;21.38;35.82
20119;BME280;10220;42.716;23.306;2022-09-19T13:26:53;94856.03;;;20.98;35.80
20119;BME280;10220;42.716;23.306;2022-09-19T13:34:42;94869.13;;;21.13;37.75
20119;BME280;10220;42.716;23.306;2022-09-19T13:40:21;94860.84;;;21.24;37.97
20119;BME280;10220;42.716;23.306;2022-09-19T13:50:56;94867.72;;;21.20;37.08
20119;BME280;10220;42.716;23.306;2022-09-19T13:53:43;94868.59;;;21.44;37.61
20119;BME280;10220;42.716;23.306;2022-09-19T13:56:31;94855.25;;;21.30;37.79
20119;BME280;10220;42.716;23.306;2022-09-19T13:59:16;94864.88;;;21.17;37.39
20119;BME280;10220;42.716;23.306;2022-09-19T14:04:22;94860.88;;;21.19;37.75
20119;BME280;10220;42.716;23.306;2022-09-19T14:07:17;94846.50;;;21.07;37.66
20119;BME280;10220;42.716;23.306;2022-09-19T14:09:45;94866.81;;;21.06;38.24
20119;BME280;10220;42.716;23.306;2022-09-19T14:21:05;94830.03;;;20.86;39.51
20119;BME280;10220;42.716;23.306;2022-09-19T14:23:40;94849.22;;;20.92;38.96
20119;BME280;10220;42.716;23.306;2022-09-19T14:39:42;94846.16;;;21.18;38.72
20119;BME280;10220;42.716;23.306;2022-09-19T14:53:50;94870.56;;;20.90;38.16
20119;BME280;10220;42.716;23.306;2022-09-19T14:56:17;94865.25;;;21.00;38.24
20119;BME280;10220;42.716;23.306;2022-09-19T14:58:51;94844.53;;;20.84;37.55
20119;BME280;10220;42.716;23.306;2022-09-19T15:01:33;94853.69;;;20.96;37.35
20119;BME280;10220;42.716;23.306;2022-09-19T15:04:09;94867.41;;;20.93;39.08
20119;BME280;10220;42.716;23.306;2022-09-19T15:06:44;94870.41;;;20.77;39.78
20119;BME280;10220;42.716;23.306;2022-09-19T15:11:54;94881.66;;;20.87;39.96
20119;BME280;10220;42.716;23.306;2022-09-19T15:14:25;94876.50;;;20.72;40.73
20119;BME280;10220;42.716;23.306;2022-09-19T15:17:10;94893.72;;;20.45;39.89
20119;BME280;10220;42.716;23.306;2022-09-19T15:19:43;94876.38;;;20.34;39.81
20119;BME280;10220;42.716;23.306;2022-09-19T15:22:41;94880.19;;;20.66;39.13
20119;BME280;10220;42.716;23.306;2022-09-19T15:25:19;94868.06;;;20.65;38.66
20119;BME280;10220;42.716;23.306;2022-09-19T15:27:52;94889.38;;;20.69;39.10
20119;BME280;10220;42.716;23.306;2022-09-19T15:30:26;94890.53;;;20.53;40.29
20119;BME280;10220;42.716;23.306;2022-09-19T15:33:01;94887.16;;;20.43;41.12
20119;BME280;10220;42.716;23.306;2022-09-19T15:35:30;94893.00;;;20.25;41.73
20119;BME280;10220;42.716;23.306;2022-09-19T15:37:59;94869.63;;;20.13;42.22
20119;BME280;10220;42.716;23.306;2022-09-19T15:40:28;94907.50;;;20.17;43.65
20119;BME280;10220;42.716;23.306;2022-09-19T15:42:56;94905.41;;;20.04;46.87
20119;BME280;10220;42.716;23.306;2022-09-19T15:47:56;94907.53;;;20.07;51.04
20119;BME280;10220;42.716;23.306;2022-09-19T15:50:30;94901.78;;;19.91;51.90
20119;BME280;10220;42.716;23.306;2022-09-19T15:52:57;94911.50;;;19.95;53.37
20119;BME280;10220;42.716;23.306;2022-09-19T15:55:25;94890.47;;;19.70;54.44
20119;BME280;10220;42.716;23.306;2022-09-19T15:57:56;94912.00;;;19.87;54.53
20119;BME280;10220;42.716;23.306;2022-09-19T16:00:25;94911.50;;;19.80;52.51
20119;BME280;10220;42.716;23.306;2022-09-19T16:02:58;94923.06;;;19.74;52.43
20119;BME280;10220;42.716;23.306;2022-09-19T16:07:55;94905.47;;;19.50;53.02
20119;BME280;10220;42.716;23.306;2022-09-19T16:10:42;94891.56;;;19.15;54.44